createdAt,value
2018-06-10T00:00:49.359Z,21.40
2018-06-10T00:03:18.276Z,21.40
2018-06-10T00:05:47.161Z,21.30
2018-06-10T00:08:16.117Z,21.30
2018-06-10T00:10:45.017Z,21.30
2018-06-10T00:13:13.911Z,21.20
2018-06-10T00:15:42.826Z,21.20
2018-06-10T00:18:11.859Z,21.20
2018-06-10T00:20:40.786Z,21.10
2018-06-10T00:23:09.700Z,21.10
2018-06-10T00:25:38.659Z,21.00
2018-06-10T00:28:07.550Z,20.90
2018-06-10T00:30:36.461Z,20.90
2018-06-10T00:33:05.629Z,20.80
2018-06-10T00:35:34.541Z,20.80
2018-06-10T00:38:03.431Z,20.80
2018-06-10T00:40:32.355Z,20.80
2018-06-10T00:43:01.275Z,20.80
2018-06-10T00:45:30.183Z,20.70
2018-06-10T00:47:59.083Z,20.80
2018-06-10T00:50:28.000Z,20.70
2018-06-10T00:52:56.882Z,20.70
2018-06-10T00:55:25.792Z,20.80
2018-06-10T00:57:54.682Z,20.80
2018-06-10T01:00:23.601Z,20.70
2018-06-10T01:02:52.499Z,20.70
2018-06-10T01:05:21.407Z,20.60
2018-06-10T01:07:50.327Z,20.60
2018-06-10T01:12:47.791Z,20.50
2018-06-10T01:15:16.707Z,20.40
2018-06-10T01:17:45.602Z,20.30
2018-06-10T01:20:14.502Z,20.30
2018-06-10T01:22:43.398Z,20.20
2018-06-10T01:25:12.304Z,20.10
2018-06-10T01:27:41.630Z,20.10
2018-06-10T01:30:10.529Z,20.10
2018-06-10T01:32:39.715Z,20.00
2018-06-10T01:35:08.612Z,20.00
2018-06-10T01:37:37.512Z,19.90
2018-06-10T01:40:06.407Z,19.80
2018-06-10T01:42:35.576Z,19.80
2018-06-10T01:45:04.436Z,19.80
2018-06-10T01:47:33.515Z,19.80
2018-06-10T01:50:02.411Z,19.70
2018-06-10T01:52:31.494Z,19.80
2018-06-10T01:55:00.394Z,19.80
2018-06-10T01:57:29.303Z,19.80
2018-06-10T01:59:58.182Z,19.80
2018-06-10T02:02:27.095Z,19.70
2018-06-10T02:04:55.972Z,19.60
2018-06-10T02:07:24.919Z,19.50
2018-06-10T02:09:53.818Z,19.40
2018-06-10T02:12:22.742Z,19.40
2018-06-10T02:14:52.139Z,19.40
2018-06-10T02:17:21.243Z,19.30
2018-06-10T02:19:50.555Z,19.30
2018-06-10T02:22:19.474Z,19.30
2018-06-10T02:24:48.370Z,19.20
2018-06-10T02:27:17.299Z,19.30
2018-06-10T02:29:46.220Z,19.20
2018-06-10T02:32:15.132Z,19.20
2018-06-10T02:34:44.030Z,19.20
2018-06-10T02:37:12.939Z,19.10
2018-06-10T02:39:41.824Z,19.20
2018-06-10T02:42:10.742Z,19.20
2018-06-10T02:44:39.637Z,19.20
2018-06-10T02:47:08.530Z,19.20
2018-06-10T02:49:37.418Z,19.10
2018-06-10T02:52:06.327Z,19.10
2018-06-10T02:54:35.211Z,19.00
2018-06-10T02:57:04.151Z,18.90
2018-06-10T02:59:33.034Z,18.90
2018-06-10T03:02:01.980Z,18.80
2018-06-10T03:04:30.892Z,18.90
2018-06-10T03:06:59.815Z,18.90
2018-06-10T03:09:28.690Z,18.90
2018-06-10T03:11:57.608Z,18.90
2018-06-10T03:14:26.924Z,18.90
2018-06-10T03:16:55.828Z,18.90
2018-06-10T03:19:24.725Z,18.80
2018-06-10T03:21:53.620Z,18.80
2018-06-10T03:24:22.512Z,18.80
2018-06-10T03:26:51.435Z,18.80
2018-06-10T03:29:20.326Z,18.70
2018-06-10T03:31:49.227Z,18.70
2018-06-10T03:34:18.112Z,18.70
2018-06-10T03:36:47.010Z,18.70
2018-06-10T03:39:15.899Z,18.70
2018-06-10T03:41:44.814Z,18.70
2018-06-10T03:44:13.707Z,18.70
2018-06-10T03:49:11.155Z,18.60
2018-06-10T03:51:40.040Z,18.60
2018-06-10T03:54:08.938Z,18.60
2018-06-10T03:56:37.823Z,18.60
2018-06-10T03:59:06.726Z,18.60
2018-06-10T04:01:35.626Z,18.50
2018-06-10T04:04:11.058Z,18.50
2018-06-10T04:06:39.964Z,18.50
2018-06-10T04:09:08.858Z,18.50
2018-06-10T04:11:37.746Z,18.40
2018-06-10T04:16:35.191Z,18.50
2018-06-10T04:19:04.096Z,18.40
2018-06-10T04:24:01.536Z,18.40
2018-06-10T04:26:30.443Z,18.40
2018-06-10T04:28:59.418Z,18.30
2018-06-10T04:31:28.316Z,18.40
2018-06-10T04:33:57.388Z,18.40
2018-06-10T04:36:26.296Z,18.30
2018-06-10T04:38:55.174Z,18.40
2018-06-10T04:41:24.061Z,18.30
2018-06-10T04:43:52.951Z,18.30
2018-06-10T04:46:21.830Z,18.30
2018-06-10T04:48:50.756Z,18.20
2018-06-10T04:51:19.647Z,18.20
2018-06-10T04:53:48.547Z,18.10
2018-06-10T04:56:17.422Z,18.10
2018-06-10T04:58:46.327Z,18.10
2018-06-10T05:01:15.209Z,18.10
2018-06-10T05:03:44.107Z,18.00
2018-06-10T05:06:12.978Z,18.00
2018-06-10T05:08:41.918Z,18.00
2018-06-10T05:11:10.802Z,18.10
2018-06-10T05:13:39.707Z,18.00
2018-06-10T05:16:08.683Z,18.10
2018-06-10T05:18:37.591Z,18.10
2018-06-10T05:21:06.479Z,18.10
2018-06-10T05:23:35.379Z,18.10
2018-06-10T05:26:04.302Z,18.10
2018-06-10T05:31:01.812Z,18.00
2018-06-10T05:33:30.703Z,18.00
2018-06-10T05:35:59.618Z,18.00
2018-06-10T05:38:28.502Z,17.90
2018-06-10T05:40:57.413Z,17.80
2018-06-10T05:43:26.352Z,17.80
2018-06-10T05:45:55.415Z,17.80
2018-06-10T05:48:24.302Z,17.80
2018-06-10T05:50:53.246Z,17.80
2018-06-10T05:53:22.134Z,17.90
2018-06-10T05:55:51.104Z,17.90
2018-06-10T05:58:20.002Z,17.90
2018-06-10T06:00:48.965Z,17.90
2018-06-10T06:03:17.939Z,18.00
2018-06-10T06:05:46.982Z,18.00
2018-06-10T06:08:15.940Z,18.00
2018-06-10T06:10:44.916Z,18.00
2018-06-10T06:13:13.798Z,18.10
2018-06-10T06:15:42.874Z,18.00
2018-06-10T06:18:11.794Z,18.00
2018-06-10T06:20:40.779Z,18.00
2018-06-10T06:23:09.731Z,18.00
2018-06-10T06:25:38.628Z,17.90
2018-06-10T06:28:07.763Z,17.90
2018-06-10T06:30:36.971Z,17.90
2018-06-10T06:33:05.865Z,17.80
2018-06-10T06:35:34.762Z,17.80
2018-06-10T06:38:04.884Z,17.90
2018-06-10T06:40:35.230Z,17.90
2018-06-10T06:43:04.367Z,17.90
2018-06-10T06:45:33.970Z,17.90
2018-06-10T06:48:03.187Z,17.90
2018-06-10T06:50:32.767Z,17.90
2018-06-10T06:53:02.004Z,18.00
2018-06-10T06:55:30.902Z,17.90
2018-06-10T06:57:59.853Z,17.90
2018-06-10T07:00:28.682Z,18.00
2018-06-10T07:02:57.586Z,17.90
2018-06-10T07:05:26.490Z,17.90
2018-06-10T07:07:55.470Z,17.90
2018-06-10T07:10:24.357Z,17.90
2018-06-10T07:12:53.261Z,17.90
2018-06-10T07:15:22.146Z,17.90
2018-06-10T07:17:51.522Z,17.90
2018-06-10T07:20:21.542Z,17.90
2018-06-10T07:22:50.794Z,17.90
2018-06-10T07:25:20.137Z,18.00
2018-06-10T07:27:49.310Z,18.00
2018-06-10T07:30:19.319Z,18.00
2018-06-10T07:32:48.746Z,18.10
2018-06-10T07:35:18.607Z,18.20
2018-06-10T07:37:47.840Z,18.20
2018-06-10T07:40:16.750Z,18.20
2018-06-10T07:42:45.655Z,18.20
2018-06-10T07:45:14.783Z,18.10
2018-06-10T07:47:43.690Z,18.10
2018-06-10T07:50:12.603Z,18.10
2018-06-10T07:52:41.502Z,18.20
2018-06-10T07:55:10.399Z,18.20
2018-06-10T07:57:39.279Z,18.20
2018-06-10T08:00:08.211Z,18.20
2018-06-10T08:02:37.126Z,18.30
2018-06-10T08:05:06.185Z,18.20
2018-06-10T08:07:35.106Z,18.10
2018-06-10T08:10:04.395Z,18.20
2018-06-10T08:12:33.287Z,18.20
2018-06-10T08:15:02.195Z,18.20
2018-06-10T08:19:07.003Z,18.20
2018-06-10T08:21:36.904Z,18.20
2018-06-10T08:24:09.060Z,18.20
2018-06-10T08:26:37.949Z,18.20
2018-06-10T08:29:06.851Z,18.30
2018-06-10T08:31:37.421Z,18.40
2018-06-10T08:34:07.949Z,18.40
2018-06-10T08:36:36.898Z,18.50
2018-06-10T08:39:07.991Z,18.50
2018-06-10T08:41:36.902Z,18.60
2018-06-10T08:44:06.199Z,18.70
2018-06-10T08:46:35.075Z,18.70
2018-06-10T08:49:04.966Z,18.70
2018-06-10T08:51:33.870Z,18.70
2018-06-10T08:54:02.755Z,18.80
2018-06-10T08:56:31.667Z,18.80
2018-06-10T08:59:00.542Z,18.80
2018-06-10T09:01:29.439Z,18.80
2018-06-10T09:03:58.322Z,18.80
2018-06-10T09:06:27.231Z,18.80
2018-06-10T09:08:56.170Z,18.90
2018-06-10T09:11:25.053Z,19.00
2018-06-10T09:13:53.948Z,19.10
2018-06-10T09:16:22.847Z,19.20
2018-06-10T09:18:52.007Z,19.20
2018-06-10T09:21:20.901Z,19.20
2018-06-10T09:23:49.798Z,19.30
2018-06-10T09:26:18.694Z,19.40
2018-06-10T09:28:47.630Z,19.50
2018-06-10T09:31:16.494Z,19.50
2018-06-10T09:33:45.381Z,19.60
2018-06-10T09:36:14.279Z,19.60
2018-06-10T09:38:43.170Z,19.70
2018-06-10T09:41:12.134Z,19.80
2018-06-10T09:43:41.156Z,19.80
2018-06-10T09:46:10.063Z,19.90
2018-06-10T09:48:38.963Z,19.90
2018-06-10T09:51:07.851Z,20.00
2018-06-10T09:53:36.753Z,20.00
2018-06-10T09:56:05.630Z,20.10
2018-06-10T09:58:34.526Z,20.00
2018-06-10T10:01:03.423Z,20.10
2018-06-10T10:03:32.314Z,20.10
2018-06-10T10:06:01.211Z,20.20
2018-06-10T10:08:30.135Z,20.10
2018-06-10T10:10:59.027Z,20.20
2018-06-10T10:13:27.917Z,20.20
2018-06-10T10:15:56.808Z,20.20
2018-06-10T10:18:25.827Z,20.20
2018-06-10T10:20:55.104Z,20.30
2018-06-10T10:23:24.016Z,20.20
2018-06-10T10:25:52.898Z,20.20
2018-06-10T10:28:21.799Z,20.30
2018-06-10T10:30:50.680Z,20.20
2018-06-10T10:33:19.574Z,20.30
2018-06-10T10:35:48.540Z,20.40
2018-06-10T10:38:17.454Z,20.40
2018-06-10T10:40:46.315Z,20.40
2018-06-10T10:43:15.210Z,20.40
2018-06-10T10:45:44.098Z,20.40
2018-06-10T10:48:13.006Z,20.40
2018-06-10T10:50:41.891Z,20.40
2018-06-10T10:53:10.807Z,20.40
2018-06-10T10:55:39.686Z,20.40
2018-06-10T10:58:08.588Z,20.50
2018-06-10T11:00:37.472Z,20.50
2018-06-10T11:03:06.372Z,20.70
2018-06-10T11:05:35.249Z,20.80
2018-06-10T11:08:04.176Z,20.80
2018-06-10T11:10:33.046Z,20.90
2018-06-10T11:13:01.961Z,20.90
2018-06-10T11:15:30.846Z,20.90
2018-06-10T11:17:59.762Z,21.10
2018-06-10T11:20:28.725Z,21.10
2018-06-10T11:22:57.618Z,21.10
2018-06-10T11:25:26.514Z,21.20
2018-06-10T11:27:55.409Z,21.10
2018-06-10T11:30:24.296Z,21.10
2018-06-10T11:32:53.210Z,21.10
2018-06-10T11:35:22.088Z,21.10
2018-06-10T11:37:50.963Z,21.10
2018-06-10T11:40:19.862Z,21.10
2018-06-10T11:42:48.742Z,21.10
2018-06-10T11:45:17.642Z,21.20
2018-06-10T11:47:46.526Z,21.20
2018-06-10T11:50:15.414Z,21.30
2018-06-10T11:52:44.550Z,21.40
2018-06-10T11:55:13.460Z,21.70
2018-06-10T11:57:42.735Z,21.90
2018-06-10T12:00:11.647Z,22.10
2018-06-10T12:02:40.531Z,22.10
2018-06-10T12:05:09.425Z,22.10
2018-06-10T12:07:38.334Z,22.00
2018-06-10T12:10:07.234Z,22.00
2018-06-10T12:12:36.127Z,22.10
2018-06-10T12:15:05.032Z,22.30
2018-06-10T12:17:33.914Z,22.50
2018-06-10T12:20:02.822Z,22.40
2018-06-10T12:22:31.764Z,22.50
2018-06-10T12:25:00.619Z,22.60
2018-06-10T12:27:29.515Z,22.70
2018-06-10T12:29:58.423Z,22.90
2018-06-10T12:32:27.318Z,23.00
2018-06-10T12:34:56.218Z,23.00
2018-06-10T12:37:25.108Z,23.10
2018-06-10T12:39:54.008Z,23.10
2018-06-10T12:42:22.922Z,23.10
2018-06-10T12:44:51.838Z,23.30
2018-06-10T12:47:20.730Z,23.30
2018-06-10T12:49:49.654Z,23.30
2018-06-10T12:52:18.542Z,23.10
2018-06-10T12:54:47.444Z,22.80
2018-06-10T12:57:16.327Z,22.50
2018-06-10T12:59:45.227Z,22.30
2018-06-10T13:02:14.120Z,22.10
2018-06-10T13:04:43.034Z,22.10
2018-06-10T13:07:12.006Z,22.20
2018-06-10T13:09:40.910Z,22.20
2018-06-10T13:12:10.004Z,22.40
2018-06-10T13:14:39.055Z,22.50
2018-06-10T13:17:07.977Z,22.40
2018-06-10T13:19:36.888Z,22.30
2018-06-10T13:22:06.151Z,22.20
2018-06-10T13:24:35.175Z,22.10
2018-06-10T13:27:04.228Z,22.10
2018-06-10T13:29:33.299Z,22.10
2018-06-10T13:32:02.384Z,22.10
2018-06-10T13:34:31.310Z,22.20
2018-06-10T13:37:00.219Z,22.70
2018-06-10T13:39:29.820Z,23.10
2018-06-10T13:42:00.693Z,23.00
2018-06-10T13:44:29.558Z,23.10
2018-06-10T13:46:58.464Z,23.50
2018-06-10T13:49:27.343Z,23.60
2018-06-10T13:51:56.250Z,23.80
2018-06-10T13:54:25.134Z,23.70
2018-06-10T13:56:54.048Z,23.90
2018-06-10T13:59:22.949Z,23.70
2018-06-10T14:01:51.843Z,23.50
2018-06-10T14:04:20.718Z,23.30
2018-06-10T14:06:49.644Z,23.00
2018-06-10T14:09:18.522Z,23.10
2018-06-10T14:11:47.422Z,23.10
2018-06-10T14:14:16.299Z,23.00
2018-06-10T14:16:45.191Z,23.00
2018-06-10T14:19:14.075Z,22.90
2018-06-10T14:21:43.059Z,22.90
2018-06-10T14:24:11.947Z,22.80
2018-06-10T14:26:40.850Z,22.80
2018-06-10T14:29:09.730Z,22.60
2018-06-10T14:31:38.719Z,22.60
2018-06-10T14:34:07.614Z,22.50
2018-06-10T14:36:36.502Z,22.60
2018-06-10T14:39:07.842Z,22.50
2018-06-10T14:41:36.739Z,22.50
2018-06-10T14:44:05.726Z,22.40
2018-06-10T14:46:34.619Z,22.40
2018-06-10T14:49:03.505Z,22.50
2018-06-10T14:51:32.407Z,22.50
2018-06-10T14:54:01.288Z,22.60
2018-06-10T14:56:30.442Z,22.90
2018-06-10T15:01:28.051Z,23.70
2018-06-10T15:03:56.947Z,23.90
2018-06-10T15:06:25.838Z,23.80
2018-06-10T15:08:54.931Z,23.80
2018-06-10T15:11:23.890Z,23.80
2018-06-10T15:13:52.784Z,23.70
2018-06-10T15:16:21.747Z,23.50
2018-06-10T15:18:50.806Z,23.50
2018-06-10T15:21:19.948Z,23.40
2018-06-10T15:23:48.842Z,23.50
2018-06-10T15:26:17.743Z,23.40
2018-06-10T15:28:46.667Z,23.30
2018-06-10T15:31:17.427Z,23.20
2018-06-10T15:36:18.135Z,23.60
2018-06-10T15:38:47.027Z,23.90
2018-06-10T15:41:15.916Z,24.10
2018-06-10T15:43:44.824Z,24.10
2018-06-10T15:46:13.726Z,23.70
2018-06-10T15:48:42.626Z,23.40
2018-06-10T15:51:11.508Z,23.30
2018-06-10T15:53:40.410Z,23.20
2018-06-10T15:56:09.311Z,23.00
2018-06-10T15:58:38.226Z,22.90
2018-06-10T16:01:07.150Z,22.90
2018-06-10T16:03:36.051Z,23.00
2018-06-10T16:06:04.930Z,23.00
2018-06-10T16:08:33.855Z,22.90
2018-06-10T16:11:03.183Z,23.00
2018-06-10T16:13:32.097Z,22.90
2018-06-10T16:16:00.975Z,22.80
2018-06-10T16:18:29.963Z,22.80
2018-06-10T16:20:58.942Z,22.80
2018-06-10T16:23:27.847Z,22.80
2018-06-10T16:25:56.820Z,22.70
2018-06-10T16:28:25.728Z,22.60
2018-06-10T16:30:54.624Z,22.60
2018-06-10T16:33:23.926Z,22.60
2018-06-10T16:35:52.815Z,22.70
2018-06-10T16:38:21.755Z,22.90
2018-06-10T16:40:50.688Z,23.20
2018-06-10T16:43:19.695Z,23.30
2018-06-10T16:45:48.585Z,23.30
2018-06-10T16:48:17.483Z,23.10
2018-06-10T16:50:46.363Z,23.10
2018-06-10T16:53:15.278Z,23.30
2018-06-10T16:55:44.171Z,23.50
2018-06-10T16:58:13.152Z,23.60
2018-06-10T17:00:42.079Z,23.70
2018-06-10T17:03:10.983Z,23.60
2018-06-10T17:05:40.130Z,23.60
2018-06-10T17:08:09.108Z,23.50
2018-06-10T17:10:37.990Z,23.30
2018-06-10T17:13:06.895Z,23.00
2018-06-10T17:15:35.844Z,22.90
2018-06-10T17:18:04.860Z,22.80
2018-06-10T17:20:33.882Z,22.80
2018-06-10T17:23:02.794Z,22.80
2018-06-10T17:25:31.695Z,22.90
2018-06-10T17:28:00.610Z,23.00
2018-06-10T17:30:29.544Z,23.00
2018-06-10T17:35:28.310Z,23.00
2018-06-10T17:37:57.530Z,22.90
2018-06-10T17:40:26.556Z,22.90
2018-06-10T17:42:55.723Z,22.80
2018-06-10T17:45:24.635Z,22.80
2018-06-10T17:47:53.531Z,22.70
2018-06-10T17:50:22.442Z,22.70
2018-06-10T17:52:51.321Z,22.60
2018-06-10T17:55:20.270Z,22.50
2018-06-10T17:57:49.695Z,22.40
2018-06-10T18:00:18.677Z,22.40
2018-06-10T18:02:47.674Z,22.30
2018-06-10T18:05:16.616Z,22.30
2018-06-10T18:07:45.495Z,22.30
2018-06-10T18:10:14.400Z,22.20
2018-06-10T18:12:43.320Z,22.20
2018-06-10T18:15:12.181Z,22.20
2018-06-10T18:17:41.051Z,22.10
2018-06-10T18:20:09.958Z,22.10
2018-06-10T18:22:38.906Z,22.00
2018-06-10T18:25:10.549Z,22.00
2018-06-10T18:27:42.071Z,21.90
2018-06-10T18:30:12.468Z,21.80
2018-06-10T18:32:41.436Z,21.70
2018-06-10T18:35:10.372Z,21.60
2018-06-10T18:37:39.271Z,21.50
2018-06-10T18:40:08.160Z,21.40
2018-06-10T18:45:05.629Z,21.30
2018-06-10T18:47:34.523Z,21.10
2018-06-10T18:52:32.246Z,21.00
2018-06-10T18:55:01.132Z,21.00
2018-06-10T18:57:30.032Z,20.90
2018-06-10T18:59:58.919Z,20.80
2018-06-10T19:02:27.817Z,20.70
2018-06-10T19:04:56.714Z,20.60
2018-06-10T19:07:25.631Z,20.50
2018-06-10T19:09:54.519Z,20.40
2018-06-10T19:12:23.421Z,20.40
2018-06-10T19:17:20.879Z,20.10
2018-06-10T19:19:49.771Z,20.00
2018-06-10T19:22:18.674Z,19.80
2018-06-10T19:24:47.658Z,19.80
2018-06-10T19:27:16.586Z,19.70
2018-06-10T19:29:45.495Z,19.60
2018-06-10T19:32:14.480Z,19.50
2018-06-10T19:34:43.398Z,19.50
2018-06-10T19:37:12.336Z,19.30
2018-06-10T19:39:41.697Z,19.20
2018-06-10T19:42:10.586Z,19.10
2018-06-10T19:44:39.527Z,19.10
2018-06-10T19:47:08.418Z,19.00
2018-06-10T19:49:37.315Z,18.90
2018-06-10T19:52:06.199Z,18.90
2018-06-10T19:54:35.102Z,18.80
2018-06-10T19:57:03.992Z,18.80
2018-06-10T19:59:32.902Z,18.70
2018-06-10T20:02:01.803Z,18.70
2018-06-10T20:04:30.700Z,18.60
2018-06-10T20:06:59.605Z,18.60
2018-06-10T20:09:28.511Z,18.60
2018-06-10T20:11:57.394Z,18.50
2018-06-10T20:14:26.315Z,18.40
2018-06-10T20:16:55.191Z,18.40
2018-06-10T20:19:24.082Z,18.30
2018-06-10T20:21:52.985Z,18.30
2018-06-10T20:24:21.967Z,18.30
2018-06-10T20:26:50.874Z,18.10
2018-06-10T20:29:19.787Z,18.00
2018-06-10T20:31:48.686Z,18.00
2018-06-10T20:34:17.589Z,18.00
2018-06-10T20:36:46.503Z,18.00
2018-06-10T20:39:15.395Z,17.90
2018-06-10T20:41:44.378Z,17.90
2018-06-10T20:44:13.270Z,17.80
2018-06-10T20:46:42.162Z,17.70
2018-06-10T20:49:11.055Z,17.70
2018-06-10T20:51:39.955Z,17.70
2018-06-10T20:54:08.851Z,17.60
2018-06-10T20:56:37.759Z,17.50
2018-06-10T20:59:06.638Z,17.50
2018-06-10T21:01:35.567Z,17.50
2018-06-10T21:06:33.024Z,17.50
2018-06-10T21:09:01.946Z,17.30
2018-06-10T21:11:30.867Z,17.30
2018-06-10T21:14:00.354Z,17.40
2018-06-10T21:16:29.267Z,17.40
2018-06-10T21:18:58.159Z,17.30
2018-06-10T21:21:27.068Z,17.30
2018-06-10T21:23:55.958Z,17.30
2018-06-10T21:26:24.841Z,17.20
2018-06-10T21:28:53.750Z,17.20
2018-06-10T21:31:22.642Z,17.10
2018-06-10T21:33:51.545Z,17.10
2018-06-10T21:36:20.434Z,16.90
2018-06-10T21:38:49.326Z,17.00
2018-06-10T21:41:18.220Z,16.90
2018-06-10T21:43:47.123Z,16.80
2018-06-10T21:46:16.018Z,16.80
2018-06-10T21:48:44.918Z,16.80
2018-06-10T21:51:13.802Z,16.80
2018-06-10T21:53:42.706Z,16.80
2018-06-10T21:56:11.605Z,16.90
2018-06-10T21:58:40.511Z,16.80
2018-06-10T22:01:09.730Z,16.90
2018-06-10T22:03:38.635Z,16.90
2018-06-10T22:06:07.529Z,16.90
2018-06-10T22:08:36.446Z,16.90
2018-06-10T22:11:05.326Z,17.00
2018-06-10T22:13:34.258Z,17.00
2018-06-10T22:16:03.144Z,16.90
2018-06-10T22:18:32.071Z,17.00
2018-06-10T22:21:00.951Z,17.00
2018-06-10T22:23:29.844Z,17.00
2018-06-10T22:25:58.751Z,17.00
2018-06-10T22:28:27.860Z,17.00
2018-06-10T22:30:56.745Z,17.00
2018-06-10T22:33:25.623Z,17.00
2018-06-10T22:35:54.518Z,17.10
2018-06-10T22:38:23.402Z,17.10
2018-06-10T22:40:52.299Z,17.00
2018-06-10T22:43:21.173Z,17.00
2018-06-10T22:45:50.069Z,17.10
2018-06-10T22:48:18.998Z,17.00
2018-06-10T22:50:47.911Z,17.00
2018-06-10T22:55:32.427Z,17.00
2018-06-10T22:58:01.311Z,16.90
2018-06-10T23:00:30.206Z,16.70
2018-06-10T23:02:59.090Z,16.70
2018-06-10T23:05:28.823Z,16.70
2018-06-10T23:07:57.726Z,16.60
2018-06-10T23:10:26.631Z,16.60
2018-06-10T23:12:55.521Z,16.60
2018-06-10T23:15:24.430Z,16.60
2018-06-10T23:17:53.347Z,16.50
2018-06-10T23:20:22.249Z,16.50
2018-06-10T23:22:51.140Z,16.60
2018-06-10T23:25:20.036Z,16.50
2018-06-10T23:27:48.914Z,16.50
2018-06-10T23:30:17.828Z,16.60
2018-06-10T23:32:46.710Z,16.50
2018-06-10T23:35:15.590Z,16.50
2018-06-10T23:37:44.494Z,16.40
2018-06-10T23:40:13.381Z,16.40
2018-06-10T23:42:42.285Z,16.40
2018-06-10T23:45:11.186Z,16.40
2018-06-10T23:47:40.091Z,16.40
2018-06-10T23:50:08.966Z,16.30
2018-06-10T23:52:37.862Z,16.40
2018-06-10T23:55:06.755Z,16.30
2018-06-10T23:57:35.666Z,16.30
